sensor_id;sensor_type;location;lat;lon;timestamp;P1;durP1;ratioP1;P2;durP2;ratioP2
4726;SDS011;2377;51.734;8.950;2022-10-13T00:01:14;9.50;;;5.60;;
4726;SDS011;2377;51.734;8.950;2022-10-13T00:03:45;7.90;;;5.30;;
4726;SDS011;2377;51.734;8.950;2022-10-13T00:06:13;8.27;;;5.80;;
4726;SDS011;2377;51.734;8.950;2022-10-13T00:08:43;9.90;;;5.30;;
4726;SDS011;2377;51.734;8.950;2022-10-13T00:11:13;7.00;;;4.97;;
4726;SDS011;2377;51.734;8.950;2022-10-13T00:13:43;8.17;;;5.27;;
4726;SDS011;2377;51.734;8.950;2022-10-13T00:16:12;7.40;;;5.20;;
4726;SDS011;2377;51.734;8.950;2022-10-13T00:18:41;7.37;;;5.07;;
4726;SDS011;2377;51.734;8.950;2022-10-13T00:21:10;10.57;;;6.13;;
4726;SDS011;2377;51.734;8.950;2022-10-13T00:23:40;11.53;;;6.33;;
4726;SDS011;2377;51.734;8.950;2022-10-13T00:26:08;7.93;;;6.23;;
4726;SDS011;2377;51.734;8.950;2022-10-13T00:28:39;9.50;;;6.60;;
4726;SDS011;2377;51.734;8.950;2022-10-13T00:31:14;14.80;;;7.97;;
4726;SDS011;2377;51.734;8.950;2022-10-13T00:33:43;9.30;;;6.87;;
4726;SDS011;2377;51.734;8.950;2022-10-13T00:36:10;10.67;;;6.67;;
4726;SDS011;2377;51.734;8.950;2022-10-13T00:38:37;11.67;;;6.63;;
4726;SDS011;2377;51.734;8.950;2022-10-13T00:41:04;13.10;;;7.17;;
4726;SDS011;2377;51.734;8.950;2022-10-13T00:46:22;10.40;;;6.37;;
4726;SDS011;2377;51.734;8.950;2022-10-13T00:48:52;10.93;;;6.93;;
4726;SDS011;2377;51.734;8.950;2022-10-13T00:51:23;13.17;;;7.63;;
4726;SDS011;2377;51.734;8.950;2022-10-13T00:53:55;11.20;;;7.30;;
4726;SDS011;2377;51.734;8.950;2022-10-13T00:56:25;12.77;;;7.43;;
4726;SDS011;2377;51.734;8.950;2022-10-13T00:58:56;8.87;;;6.30;;
4726;SDS011;2377;51.734;8.950;2022-10-13T01:01:25;11.00;;;6.53;;
4726;SDS011;2377;51.734;8.950;2022-10-13T01:03:52;11.17;;;6.40;;
4726;SDS011;2377;51.734;8.950;2022-10-13T01:06:19;11.83;;;6.93;;
4726;SDS011;2377;51.734;8.950;2022-10-13T01:08:46;11.83;;;7.37;;
4726;SDS011;2377;51.734;8.950;2022-10-13T01:11:36;10.00;;;7.30;;
4726;SDS011;2377;51.734;8.950;2022-10-13T01:14:26;13.93;;;7.03;;
4726;SDS011;2377;51.734;8.950;2022-10-13T01:17:03;17.00;;;7.83;;
4726;SDS011;2377;51.734;8.950;2022-10-13T01:19:48;11.70;;;8.33;;
4726;SDS011;2377;51.734;8.950;2022-10-13T01:23:09;18.40;;;7.70;;
4726;SDS011;2377;51.734;8.950;2022-10-13T01:26:08;10.87;;;7.50;;
4726;SDS011;2377;51.734;8.950;2022-10-13T01:29:10;10.80;;;7.60;;
4726;SDS011;2377;51.734;8.950;2022-10-13T01:32:05;10.80;;;7.10;;
4726;SDS011;2377;51.734;8.950;2022-10-13T01:34:42;12.77;;;7.60;;
4726;SDS011;2377;51.734;8.950;2022-10-13T01:37:19;20.57;;;7.37;;
4726;SDS011;2377;51.734;8.950;2022-10-13T01:39:54;12.60;;;6.40;;
4726;SDS011;2377;51.734;8.950;2022-10-13T01:42:33;9.53;;;6.30;;
4726;SDS011;2377;51.734;8.950;2022-10-13T01:45:10;12.60;;;6.80;;
4726;SDS011;2377;51.734;8.950;2022-10-13T01:47:44;13.43;;;6.77;;
4726;SDS011;2377;51.734;8.950;2022-10-13T01:50:15;10.37;;;6.47;;
4726;SDS011;2377;51.734;8.950;2022-10-13T01:52:44;9.90;;;7.10;;
4726;SDS011;2377;51.734;8.950;2022-10-13T01:55:14;11.33;;;7.17;;
4726;SDS011;2377;51.734;8.950;2022-10-13T01:57:42;11.40;;;7.40;;
4726;SDS011;2377;51.734;8.950;2022-10-13T02:00:11;9.23;;;6.70;;
4726;SDS011;2377;51.734;8.950;2022-10-13T02:02:44;8.67;;;6.10;;
4726;SDS011;2377;51.734;8.950;2022-10-13T02:05:28;9.87;;;6.63;;
4726;SDS011;2377;51.734;8.950;2022-10-13T02:08:09;11.10;;;6.83;;
4726;SDS011;2377;51.734;8.950;2022-10-13T02:10:49;15.37;;;6.73;;
4726;SDS011;2377;51.734;8.950;2022-10-13T02:13:27;12.53;;;8.00;;
4726;SDS011;2377;51.734;8.950;2022-10-13T02:15:58;13.33;;;7.13;;
4726;SDS011;2377;51.734;8.950;2022-10-13T02:18:29;11.13;;;7.40;;
4726;SDS011;2377;51.734;8.950;2022-10-13T02:21:00;10.93;;;6.87;;
4726;SDS011;2377;51.734;8.950;2022-10-13T02:23:29;11.17;;;7.17;;
4726;SDS011;2377;51.734;8.950;2022-10-13T02:25:57;12.30;;;6.63;;
4726;SDS011;2377;51.734;8.950;2022-10-13T02:28:26;13.50;;;7.37;;
4726;SDS011;2377;51.734;8.950;2022-10-13T02:30:54;17.07;;;8.97;;
4726;SDS011;2377;51.734;8.950;2022-10-13T02:33:21;12.53;;;7.20;;
4726;SDS011;2377;51.734;8.950;2022-10-13T02:35:49;10.40;;;7.43;;
4726;SDS011;2377;51.734;8.950;2022-10-13T02:38:16;15.50;;;8.70;;
4726;SDS011;2377;51.734;8.950;2022-10-13T02:40:43;13.40;;;7.27;;
4726;SDS011;2377;51.734;8.950;2022-10-13T02:43:10;15.83;;;8.37;;
4726;SDS011;2377;51.734;8.950;2022-10-13T02:45:37;15.13;;;8.20;;
4726;SDS011;2377;51.734;8.950;2022-10-13T02:48:05;13.33;;;8.10;;
4726;SDS011;2377;51.734;8.950;2022-10-13T02:50:32;13.73;;;8.10;;
4726;SDS011;2377;51.734;8.950;2022-10-13T02:53:00;13.20;;;8.80;;
4726;SDS011;2377;51.734;8.950;2022-10-13T02:55:27;11.47;;;8.03;;
4726;SDS011;2377;51.734;8.950;2022-10-13T02:57:55;17.57;;;8.00;;
4726;SDS011;2377;51.734;8.950;2022-10-13T03:00:22;9.73;;;6.80;;
4726;SDS011;2377;51.734;8.950;2022-10-13T03:02:49;11.00;;;7.37;;
4726;SDS011;2377;51.734;8.950;2022-10-13T03:05:16;14.67;;;8.07;;
4726;SDS011;2377;51.734;8.950;2022-10-13T03:07:43;12.20;;;8.00;;
4726;SDS011;2377;51.734;8.950;2022-10-13T03:10:11;9.93;;;7.30;;
4726;SDS011;2377;51.734;8.950;2022-10-13T03:12:39;13.20;;;8.07;;
4726;SDS011;2377;51.734;8.950;2022-10-13T03:15:06;16.37;;;8.30;;
4726;SDS011;2377;51.734;8.950;2022-10-13T03:17:34;12.73;;;8.50;;
4726;SDS011;2377;51.734;8.950;2022-10-13T03:20:01;11.67;;;7.07;;
4726;SDS011;2377;51.734;8.950;2022-10-13T03:22:30;10.87;;;7.13;;
4726;SDS011;2377;51.734;8.950;2022-10-13T03:24:57;12.83;;;8.10;;
4726;SDS011;2377;51.734;8.950;2022-10-13T03:27:25;10.40;;;7.37;;
4726;SDS011;2377;51.734;8.950;2022-10-13T03:29:53;15.20;;;8.10;;
4726;SDS011;2377;51.734;8.950;2022-10-13T03:32:20;9.13;;;6.87;;
4726;SDS011;2377;51.734;8.950;2022-10-13T03:34:47;11.10;;;7.53;;
4726;SDS011;2377;51.734;8.950;2022-10-13T03:37:16;18.37;;;10.03;;
4726;SDS011;2377;51.734;8.950;2022-10-13T03:39:43;11.70;;;7.70;;
4726;SDS011;2377;51.734;8.950;2022-10-13T03:42:10;14.33;;;9.27;;
4726;SDS011;2377;51.734;8.950;2022-10-13T03:44:38;11.67;;;7.43;;
4726;SDS011;2377;51.734;8.950;2022-10-13T03:47:05;12.43;;;7.57;;
4726;SDS011;2377;51.734;8.950;2022-10-13T03:49:32;11.80;;;7.50;;
4726;SDS011;2377;51.734;8.950;2022-10-13T03:51:59;11.67;;;7.83;;
4726;SDS011;2377;51.734;8.950;2022-10-13T03:54:26;13.80;;;9.00;;
4726;SDS011;2377;51.734;8.950;2022-10-13T03:56:53;14.27;;;7.90;;
4726;SDS011;2377;51.734;8.950;2022-10-13T03:59:20;14.87;;;8.57;;
4726;SDS011;2377;51.734;8.950;2022-10-13T04:01:49;15.40;;;8.40;;
4726;SDS011;2377;51.734;8.950;2022-10-13T04:04:16;10.17;;;7.00;;
4726;SDS011;2377;51.734;8.950;2022-10-13T04:06:43;14.63;;;8.43;;
4726;SDS011;2377;51.734;8.950;2022-10-13T04:09:10;12.43;;;7.30;;
4726;SDS011;2377;51.734;8.950;2022-10-13T04:11:37;11.73;;;7.97;;
4726;SDS011;2377;51.734;8.950;2022-10-13T04:14:04;14.80;;;7.10;;
4726;SDS011;2377;51.734;8.950;2022-10-13T04:16:31;14.87;;;7.77;;
4726;SDS011;2377;51.734;8.950;2022-10-13T04:19:01;10.53;;;7.23;;
4726;SDS011;2377;51.734;8.950;2022-10-13T04:21:31;10.20;;;6.27;;
4726;SDS011;2377;51.734;8.950;2022-10-13T04:24:00;10.80;;;6.93;;
4726;SDS011;2377;51.734;8.950;2022-10-13T04:26:31;8.83;;;6.27;;
4726;SDS011;2377;51.734;8.950;2022-10-13T04:29:01;11.73;;;6.97;;
4726;SDS011;2377;51.734;8.950;2022-10-13T04:31:30;9.83;;;6.60;;
4726;SDS011;2377;51.734;8.950;2022-10-13T04:33:59;9.97;;;6.90;;
4726;SDS011;2377;51.734;8.950;2022-10-13T04:36:27;15.00;;;7.37;;
4726;SDS011;2377;51.734;8.950;2022-10-13T04:38:54;10.17;;;6.90;;
4726;SDS011;2377;51.734;8.950;2022-10-13T04:41:21;12.30;;;7.20;;
4726;SDS011;2377;51.734;8.950;2022-10-13T04:43:49;12.57;;;8.30;;
4726;SDS011;2377;51.734;8.950;2022-10-13T04:46:18;11.53;;;7.30;;
4726;SDS011;2377;51.734;8.950;2022-10-13T04:48:49;13.03;;;8.30;;
4726;SDS011;2377;51.734;8.950;2022-10-13T04:51:19;11.67;;;7.80;;
4726;SDS011;2377;51.734;8.950;2022-10-13T04:53:52;12.20;;;7.40;;
4726;SDS011;2377;51.734;8.950;2022-10-13T04:56:21;12.70;;;7.70;;
4726;SDS011;2377;51.734;8.950;2022-10-13T04:58:49;10.80;;;7.00;;
4726;SDS011;2377;51.734;8.950;2022-10-13T05:01:17;13.67;;;7.60;;
4726;SDS011;2377;51.734;8.950;2022-10-13T05:03:49;12.73;;;7.90;;
4726;SDS011;2377;51.734;8.950;2022-10-13T05:06:19;12.33;;;7.53;;
4726;SDS011;2377;51.734;8.950;2022-10-13T05:08:49;11.73;;;7.27;;
4726;SDS011;2377;51.734;8.950;2022-10-13T05:11:17;14.13;;;8.00;;
4726;SDS011;2377;51.734;8.950;2022-10-13T05:13:45;12.23;;;7.93;;
4726;SDS011;2377;51.734;8.950;2022-10-13T05:16:13;14.77;;;9.30;;
4726;SDS011;2377;51.734;8.950;2022-10-13T05:18:43;14.57;;;8.60;;
4726;SDS011;2377;51.734;8.950;2022-10-13T05:21:11;15.43;;;9.13;;
4726;SDS011;2377;51.734;8.950;2022-10-13T05:23:42;13.77;;;8.47;;
4726;SDS011;2377;51.734;8.950;2022-10-13T05:26:10;17.70;;;9.30;;
4726;SDS011;2377;51.734;8.950;2022-10-13T05:28:41;13.77;;;8.90;;
4726;SDS011;2377;51.734;8.950;2022-10-13T05:31:10;11.90;;;8.23;;
4726;SDS011;2377;51.734;8.950;2022-10-13T05:33:39;15.87;;;8.70;;
4726;SDS011;2377;51.734;8.950;2022-10-13T05:36:08;12.23;;;8.47;;
4726;SDS011;2377;51.734;8.950;2022-10-13T05:38:37;14.93;;;9.10;;
4726;SDS011;2377;51.734;8.950;2022-10-13T05:41:07;15.13;;;8.63;;
4726;SDS011;2377;51.734;8.950;2022-10-13T05:43:37;10.37;;;7.50;;
4726;SDS011;2377;51.734;8.950;2022-10-13T05:46:06;10.57;;;7.40;;
4726;SDS011;2377;51.734;8.950;2022-10-13T05:48:34;12.93;;;7.87;;
4726;SDS011;2377;51.734;8.950;2022-10-13T05:51:02;11.80;;;7.67;;
4726;SDS011;2377;51.734;8.950;2022-10-13T05:53:36;16.97;;;9.33;;
4726;SDS011;2377;51.734;8.950;2022-10-13T05:56:10;13.03;;;8.17;;
4726;SDS011;2377;51.734;8.950;2022-10-13T05:58:43;11.33;;;7.00;;
4726;SDS011;2377;51.734;8.950;2022-10-13T06:01:16;11.50;;;7.60;;
4726;SDS011;2377;51.734;8.950;2022-10-13T06:03:50;14.27;;;7.80;;
4726;SDS011;2377;51.734;8.950;2022-10-13T06:06:21;13.00;;;8.00;;
4726;SDS011;2377;51.734;8.950;2022-10-13T06:08:49;11.27;;;7.57;;
4726;SDS011;2377;51.734;8.950;2022-10-13T06:11:19;13.07;;;7.50;;
4726;SDS011;2377;51.734;8.950;2022-10-13T06:13:46;13.73;;;7.50;;
4726;SDS011;2377;51.734;8.950;2022-10-13T06:16:13;9.20;;;7.20;;
4726;SDS011;2377;51.734;8.950;2022-10-13T06:18:40;13.23;;;6.97;;
4726;SDS011;2377;51.734;8.950;2022-10-13T06:21:07;13.40;;;7.83;;
4726;SDS011;2377;51.734;8.950;2022-10-13T06:23:34;13.40;;;8.10;;
4726;SDS011;2377;51.734;8.950;2022-10-13T06:26:01;13.53;;;8.77;;
4726;SDS011;2377;51.734;8.950;2022-10-13T06:28:29;13.97;;;8.90;;
4726;SDS011;2377;51.734;8.950;2022-10-13T06:30:56;11.80;;;8.00;;
4726;SDS011;2377;51.734;8.950;2022-10-13T06:33:23;13.57;;;7.93;;
4726;SDS011;2377;51.734;8.950;2022-10-13T06:35:51;15.20;;;8.20;;
4726;SDS011;2377;51.734;8.950;2022-10-13T06:38:18;12.70;;;7.53;;
4726;SDS011;2377;51.734;8.950;2022-10-13T06:40:45;12.43;;;8.20;;
4726;SDS011;2377;51.734;8.950;2022-10-13T06:43:12;12.00;;;7.87;;
4726;SDS011;2377;51.734;8.950;2022-10-13T06:45:41;9.40;;;6.70;;
4726;SDS011;2377;51.734;8.950;2022-10-13T06:48:08;12.57;;;7.50;;
4726;SDS011;2377;51.734;8.950;2022-10-13T06:50:35;19.20;;;7.90;;
4726;SDS011;2377;51.734;8.950;2022-10-13T06:53:02;11.70;;;7.80;;
4726;SDS011;2377;51.734;8.950;2022-10-13T06:55:29;10.30;;;7.70;;
4726;SDS011;2377;51.734;8.950;2022-10-13T06:57:56;14.30;;;7.90;;
4726;SDS011;2377;51.734;8.950;2022-10-13T07:00:23;12.23;;;8.17;;
4726;SDS011;2377;51.734;8.950;2022-10-13T07:02:52;15.33;;;8.60;;
4726;SDS011;2377;51.734;8.950;2022-10-13T07:05:19;12.80;;;8.57;;
4726;SDS011;2377;51.734;8.950;2022-10-13T07:07:46;15.47;;;8.97;;
4726;SDS011;2377;51.734;8.950;2022-10-13T07:10:13;14.70;;;9.03;;
4726;SDS011;2377;51.734;8.950;2022-10-13T07:12:40;13.13;;;8.33;;
4726;SDS011;2377;51.734;8.950;2022-10-13T07:15:07;14.80;;;9.20;;
4726;SDS011;2377;51.734;8.950;2022-10-13T07:17:35;13.40;;;8.70;;
4726;SDS011;2377;51.734;8.950;2022-10-13T07:20:04;15.07;;;10.00;;
4726;SDS011;2377;51.734;8.950;2022-10-13T07:22:33;14.93;;;8.60;;
4726;SDS011;2377;51.734;8.950;2022-10-13T07:25:00;10.70;;;7.70;;
4726;SDS011;2377;51.734;8.950;2022-10-13T07:27:27;13.00;;;8.40;;
4726;SDS011;2377;51.734;8.950;2022-10-13T07:29:54;13.63;;;8.70;;
4726;SDS011;2377;51.734;8.950;2022-10-13T07:32:21;14.47;;;8.50;;
4726;SDS011;2377;51.734;8.950;2022-10-13T07:34:50;16.47;;;8.77;;
4726;SDS011;2377;51.734;8.950;2022-10-13T07:37:20;12.93;;;8.67;;
4726;SDS011;2377;51.734;8.950;2022-10-13T07:39:47;13.57;;;8.97;;
4726;SDS011;2377;51.734;8.950;2022-10-13T07:42:15;15.00;;;8.60;;
4726;SDS011;2377;51.734;8.950;2022-10-13T07:44:42;14.40;;;8.70;;
4726;SDS011;2377;51.734;8.950;2022-10-13T07:47:10;15.57;;;8.80;;
4726;SDS011;2377;51.734;8.950;2022-10-13T07:49:37;13.50;;;8.80;;
4726;SDS011;2377;51.734;8.950;2022-10-13T07:52:03;14.70;;;9.10;;
4726;SDS011;2377;51.734;8.950;2022-10-13T07:54:32;12.20;;;8.50;;
4726;SDS011;2377;51.734;8.950;2022-10-13T07:56:59;15.20;;;9.40;;
4726;SDS011;2377;51.734;8.950;2022-10-13T07:59:27;16.20;;;9.23;;
4726;SDS011;2377;51.734;8.950;2022-10-13T08:01:54;12.60;;;8.73;;
4726;SDS011;2377;51.734;8.950;2022-10-13T08:04:21;12.00;;;8.50;;
4726;SDS011;2377;51.734;8.950;2022-10-13T08:06:49;14.60;;;8.53;;
4726;SDS011;2377;51.734;8.950;2022-10-13T08:09:16;15.20;;;9.10;;
4726;SDS011;2377;51.734;8.950;2022-10-13T08:11:44;12.57;;;8.20;;
4726;SDS011;2377;51.734;8.950;2022-10-13T08:14:12;12.57;;;8.00;;
4726;SDS011;2377;51.734;8.950;2022-10-13T08:16:39;13.77;;;8.47;;
4726;SDS011;2377;51.734;8.950;2022-10-13T08:19:09;12.30;;;9.00;;
4726;SDS011;2377;51.734;8.950;2022-10-13T08:21:38;16.93;;;9.13;;
4726;SDS011;2377;51.734;8.950;2022-10-13T08:24:05;14.03;;;9.03;;
4726;SDS011;2377;51.734;8.950;2022-10-13T08:26:36;17.30;;;8.90;;
4726;SDS011;2377;51.734;8.950;2022-10-13T08:29:05;20.57;;;10.53;;
4726;SDS011;2377;51.734;8.950;2022-10-13T08:31:32;16.07;;;8.77;;
4726;SDS011;2377;51.734;8.950;2022-10-13T08:33:59;15.40;;;9.50;;
4726;SDS011;2377;51.734;8.950;2022-10-13T08:36:26;18.57;;;9.50;;
4726;SDS011;2377;51.734;8.950;2022-10-13T08:38:54;12.93;;;7.73;;
4726;SDS011;2377;51.734;8.950;2022-10-13T08:41:22;16.87;;;7.93;;
4726;SDS011;2377;51.734;8.950;2022-10-13T08:43:55;22.27;;;9.43;;
4726;SDS011;2377;51.734;8.950;2022-10-13T08:46:31;16.20;;;9.27;;
4726;SDS011;2377;51.734;8.950;2022-10-13T08:49:08;14.17;;;8.30;;
4726;SDS011;2377;51.734;8.950;2022-10-13T08:51:36;12.60;;;7.77;;
4726;SDS011;2377;51.734;8.950;2022-10-13T08:54:05;18.50;;;8.33;;
4726;SDS011;2377;51.734;8.950;2022-10-13T08:56:33;16.00;;;8.47;;
4726;SDS011;2377;51.734;8.950;2022-10-13T08:59:01;16.13;;;8.70;;
4726;SDS011;2377;51.734;8.950;2022-10-13T09:01:33;14.60;;;8.33;;
4726;SDS011;2377;51.734;8.950;2022-10-13T09:04:06;13.70;;;8.77;;
4726;SDS011;2377;51.734;8.950;2022-10-13T09:06:50;15.97;;;9.30;;
4726;SDS011;2377;51.734;8.950;2022-10-13T09:09:23;15.30;;;8.57;;
4726;SDS011;2377;51.734;8.950;2022-10-13T09:11:50;17.83;;;8.70;;
4726;SDS011;2377;51.734;8.950;2022-10-13T09:14:19;11.97;;;7.47;;
4726;SDS011;2377;51.734;8.950;2022-10-13T09:16:50;14.17;;;7.27;;
4726;SDS011;2377;51.734;8.950;2022-10-13T09:19:19;17.03;;;7.60;;
4726;SDS011;2377;51.734;8.950;2022-10-13T09:21:51;15.97;;;8.50;;
4726;SDS011;2377;51.734;8.950;2022-10-13T09:24:21;14.47;;;8.43;;
4726;SDS011;2377;51.734;8.950;2022-10-13T09:26:50;14.47;;;8.23;;
4726;SDS011;2377;51.734;8.950;2022-10-13T09:29:31;13.97;;;8.00;;
4726;SDS011;2377;51.734;8.950;2022-10-13T09:32:17;22.70;;;12.10;;
4726;SDS011;2377;51.734;8.950;2022-10-13T09:34:48;10.37;;;7.33;;
4726;SDS011;2377;51.734;8.950;2022-10-13T09:37:16;15.60;;;9.57;;
4726;SDS011;2377;51.734;8.950;2022-10-13T09:39:58;11.43;;;7.50;;
4726;SDS011;2377;51.734;8.950;2022-10-13T09:42:28;14.37;;;8.43;;
4726;SDS011;2377;51.734;8.950;2022-10-13T09:44:57;12.20;;;8.43;;
4726;SDS011;2377;51.734;8.950;2022-10-13T09:47:29;14.23;;;7.77;;
4726;SDS011;2377;51.734;8.950;2022-10-13T09:50:01;14.03;;;7.70;;
4726;SDS011;2377;51.734;8.950;2022-10-13T09:52:41;15.70;;;7.60;;
4726;SDS011;2377;51.734;8.950;2022-10-13T09:55:28;12.90;;;7.57;;
4726;SDS011;2377;51.734;8.950;2022-10-13T09:57:59;17.80;;;8.77;;
4726;SDS011;2377;51.734;8.950;2022-10-13T10:00:32;24.03;;;9.27;;
4726;SDS011;2377;51.734;8.950;2022-10-13T10:03:03;18.90;;;7.23;;
4726;SDS011;2377;51.734;8.950;2022-10-13T10:05:43;14.90;;;8.20;;
4726;SDS011;2377;51.734;8.950;2022-10-13T10:08:16;11.43;;;7.50;;
4726;SDS011;2377;51.734;8.950;2022-10-13T10:10:48;14.30;;;7.77;;
4726;SDS011;2377;51.734;8.950;2022-10-13T10:13:17;17.30;;;6.73;;
4726;SDS011;2377;51.734;8.950;2022-10-13T10:15:46;11.53;;;7.23;;
4726;SDS011;2377;51.734;8.950;2022-10-13T10:18:22;14.43;;;7.30;;
4726;SDS011;2377;51.734;8.950;2022-10-13T10:21:04;10.47;;;6.40;;
4726;SDS011;2377;51.734;8.950;2022-10-13T10:23:40;16.53;;;6.73;;
4726;SDS011;2377;51.734;8.950;2022-10-13T10:26:14;10.23;;;6.30;;
4726;SDS011;2377;51.734;8.950;2022-10-13T10:31:48;9.40;;;5.90;;
4726;SDS011;2377;51.734;8.950;2022-10-13T10:34:36;12.90;;;5.57;;
4726;SDS011;2377;51.734;8.950;2022-10-13T10:37:15;10.00;;;5.60;;
4726;SDS011;2377;51.734;8.950;2022-10-13T10:39:52;9.50;;;5.67;;
4726;SDS011;2377;51.734;8.950;2022-10-13T10:45:29;10.17;;;5.40;;
4726;SDS011;2377;51.734;8.950;2022-10-13T10:48:03;11.40;;;5.73;;
4726;SDS011;2377;51.734;8.950;2022-10-13T10:50:44;9.70;;;5.47;;
4726;SDS011;2377;51.734;8.950;2022-10-13T10:53:13;8.60;;;4.57;;
4726;SDS011;2377;51.734;8.950;2022-10-13T10:55:53;9.90;;;4.50;;
4726;SDS011;2377;51.734;8.950;2022-10-13T10:58:31;10.07;;;4.53;;
4726;SDS011;2377;51.734;8.950;2022-10-13T11:01:13;7.77;;;5.03;;
4726;SDS011;2377;51.734;8.950;2022-10-13T11:03:56;10.93;;;5.70;;
4726;SDS011;2377;51.734;8.950;2022-10-13T11:06:55;8.00;;;4.30;;
4726;SDS011;2377;51.734;8.950;2022-10-13T11:12:43;7.17;;;4.00;;
4726;SDS011;2377;51.734;8.950;2022-10-13T11:15:15;8.20;;;4.17;;
4726;SDS011;2377;51.734;8.950;2022-10-13T11:17:50;9.47;;;4.37;;
4726;SDS011;2377;51.734;8.950;2022-10-13T11:23:30;9.43;;;3.90;;
4726;SDS011;2377;51.734;8.950;2022-10-13T11:26:18;7.10;;;4.20;;
4726;SDS011;2377;51.734;8.950;2022-10-13T11:28:56;10.33;;;4.00;;
4726;SDS011;2377;51.734;8.950;2022-10-13T11:31:28;7.13;;;3.60;;
4726;SDS011;2377;51.734;8.950;2022-10-13T11:34:25;10.47;;;4.13;;
4726;SDS011;2377;51.734;8.950;2022-10-13T11:36:55;9.13;;;4.17;;
4726;SDS011;2377;51.734;8.950;2022-10-13T11:49:02;15.63;;;5.00;;
4726;SDS011;2377;51.734;8.950;2022-10-13T11:55:00;11.90;;;4.57;;
4726;SDS011;2377;51.734;8.950;2022-10-13T11:57:37;10.80;;;4.33;;
4726;SDS011;2377;51.734;8.950;2022-10-13T12:00:10;11.73;;;4.77;;
4726;SDS011;2377;51.734;8.950;2022-10-13T12:02:51;11.90;;;5.20;;
4726;SDS011;2377;51.734;8.950;2022-10-13T12:05:20;7.73;;;4.27;;
4726;SDS011;2377;51.734;8.950;2022-10-13T12:07:50;7.73;;;3.90;;
4726;SDS011;2377;51.734;8.950;2022-10-13T12:10:24;11.50;;;4.63;;
4726;SDS011;2377;51.734;8.950;2022-10-13T12:12:56;11.30;;;4.57;;
4726;SDS011;2377;51.734;8.950;2022-10-13T12:15:27;12.70;;;4.50;;
4726;SDS011;2377;51.734;8.950;2022-10-13T12:17:57;9.60;;;4.80;;
4726;SDS011;2377;51.734;8.950;2022-10-13T12:20:26;12.37;;;4.47;;
4726;SDS011;2377;51.734;8.950;2022-10-13T12:22:55;24.50;;;4.37;;
4726;SDS011;2377;51.734;8.950;2022-10-13T12:25:25;11.73;;;4.43;;
4726;SDS011;2377;51.734;8.950;2022-10-13T12:27:56;9.60;;;4.17;;
4726;SDS011;2377;51.734;8.950;2022-10-13T12:30:27;9.73;;;4.40;;
4726;SDS011;2377;51.734;8.950;2022-10-13T12:33:00;8.97;;;4.30;;
4726;SDS011;2377;51.734;8.950;2022-10-13T12:35:28;8.10;;;4.63;;
4726;SDS011;2377;51.734;8.950;2022-10-13T12:37:59;8.43;;;4.50;;
4726;SDS011;2377;51.734;8.950;2022-10-13T12:40:33;8.27;;;4.30;;
4726;SDS011;2377;51.734;8.950;2022-10-13T12:43:02;10.57;;;4.43;;
4726;SDS011;2377;51.734;8.950;2022-10-13T12:45:30;11.13;;;4.90;;
4726;SDS011;2377;51.734;8.950;2022-10-13T12:48:00;6.80;;;4.40;;
4726;SDS011;2377;51.734;8.950;2022-10-13T12:50:32;8.97;;;4.00;;
4726;SDS011;2377;51.734;8.950;2022-10-13T12:53:10;9.00;;;4.63;;
4726;SDS011;2377;51.734;8.950;2022-10-13T12:55:48;10.53;;;4.67;;
4726;SDS011;2377;51.734;8.950;2022-10-13T12:58:23;11.63;;;4.77;;
4726;SDS011;2377;51.734;8.950;2022-10-13T13:00:59;8.03;;;4.50;;
4726;SDS011;2377;51.734;8.950;2022-10-13T13:03:42;10.13;;;4.47;;
4726;SDS011;2377;51.734;8.950;2022-10-13T13:06:20;10.73;;;4.80;;
4726;SDS011;2377;51.734;8.950;2022-10-13T13:14:52;7.20;;;4.20;;
4726;SDS011;2377;51.734;8.950;2022-10-13T13:17:25;10.37;;;4.67;;
4726;SDS011;2377;51.734;8.950;2022-10-13T13:19:57;10.30;;;5.03;;
4726;SDS011;2377;51.734;8.950;2022-10-13T13:22:24;10.23;;;6.53;;
4726;SDS011;2377;51.734;8.950;2022-10-13T13:24:52;7.87;;;4.70;;
4726;SDS011;2377;51.734;8.950;2022-10-13T13:27:20;11.13;;;4.03;;
4726;SDS011;2377;51.734;8.950;2022-10-13T13:29:53;7.20;;;4.37;;
4726;SDS011;2377;51.734;8.950;2022-10-13T13:32:21;7.27;;;4.57;;
4726;SDS011;2377;51.734;8.950;2022-10-13T13:34:52;12.33;;;4.50;;
4726;SDS011;2377;51.734;8.950;2022-10-13T13:37:24;9.80;;;4.70;;
4726;SDS011;2377;51.734;8.950;2022-10-13T13:39:56;11.77;;;5.17;;
4726;SDS011;2377;51.734;8.950;2022-10-13T13:42:25;6.83;;;4.03;;
4726;SDS011;2377;51.734;8.950;2022-10-13T13:44:53;7.73;;;4.40;;
4726;SDS011;2377;51.734;8.950;2022-10-13T13:47:21;11.83;;;4.40;;
4726;SDS011;2377;51.734;8.950;2022-10-13T13:49:51;8.13;;;4.20;;
4726;SDS011;2377;51.734;8.950;2022-10-13T13:52:21;12.00;;;5.23;;
4726;SDS011;2377;51.734;8.950;2022-10-13T13:54:48;8.10;;;4.87;;
4726;SDS011;2377;51.734;8.950;2022-10-13T13:57:16;6.57;;;4.50;;
4726;SDS011;2377;51.734;8.950;2022-10-13T13:59:45;9.20;;;4.40;;
4726;SDS011;2377;51.734;8.950;2022-10-13T14:02:14;8.67;;;5.10;;
4726;SDS011;2377;51.734;8.950;2022-10-13T14:04:44;10.00;;;4.57;;
4726;SDS011;2377;51.734;8.950;2022-10-13T14:07:11;9.40;;;4.87;;
4726;SDS011;2377;51.734;8.950;2022-10-13T14:09:39;12.80;;;5.20;;
4726;SDS011;2377;51.734;8.950;2022-10-13T14:12:06;9.33;;;4.87;;
4726;SDS011;2377;51.734;8.950;2022-10-13T14:14:33;9.30;;;4.53;;
4726;SDS011;2377;51.734;8.950;2022-10-13T14:17:01;12.23;;;5.23;;
4726;SDS011;2377;51.734;8.950;2022-10-13T14:19:30;11.80;;;4.70;;
4726;SDS011;2377;51.734;8.950;2022-10-13T14:21:58;7.87;;;3.97;;
4726;SDS011;2377;51.734;8.950;2022-10-13T14:24:26;8.87;;;4.00;;
4726;SDS011;2377;51.734;8.950;2022-10-13T14:26:53;11.87;;;4.60;;
4726;SDS011;2377;51.734;8.950;2022-10-13T14:29:20;11.80;;;4.40;;
4726;SDS011;2377;51.734;8.950;2022-10-13T14:31:47;9.07;;;4.57;;
4726;SDS011;2377;51.734;8.950;2022-10-13T14:34:16;11.40;;;4.43;;
4726;SDS011;2377;51.734;8.950;2022-10-13T14:36:45;8.83;;;3.90;;
4726;SDS011;2377;51.734;8.950;2022-10-13T14:39:12;7.47;;;4.10;;
4726;SDS011;2377;51.734;8.950;2022-10-13T14:41:39;7.93;;;4.30;;
4726;SDS011;2377;51.734;8.950;2022-10-13T14:44:06;7.17;;;4.20;;
4726;SDS011;2377;51.734;8.950;2022-10-13T14:46:37;6.53;;;4.20;;
4726;SDS011;2377;51.734;8.950;2022-10-13T14:49:04;6.47;;;3.93;;
4726;SDS011;2377;51.734;8.950;2022-10-13T14:51:32;12.47;;;4.63;;
4726;SDS011;2377;51.734;8.950;2022-10-13T14:53:59;6.80;;;3.97;;
4726;SDS011;2377;51.734;8.950;2022-10-13T14:56:29;10.67;;;4.57;;
4726;SDS011;2377;51.734;8.950;2022-10-13T14:58:56;8.87;;;4.57;;
4726;SDS011;2377;51.734;8.950;2022-10-13T15:01:26;11.50;;;4.40;;
4726;SDS011;2377;51.734;8.950;2022-10-13T15:03:53;8.20;;;4.40;;
4726;SDS011;2377;51.734;8.950;2022-10-13T15:06:22;12.80;;;5.30;;
4726;SDS011;2377;51.734;8.950;2022-10-13T15:08:52;6.20;;;4.40;;
4726;SDS011;2377;51.734;8.950;2022-10-13T15:11:20;7.63;;;4.40;;
4726;SDS011;2377;51.734;8.950;2022-10-13T15:13:47;8.20;;;4.47;;
4726;SDS011;2377;51.734;8.950;2022-10-13T15:16:15;7.77;;;4.50;;
4726;SDS011;2377;51.734;8.950;2022-10-13T15:18:45;12.80;;;4.63;;
4726;SDS011;2377;51.734;8.950;2022-10-13T15:21:13;12.10;;;4.23;;
4726;SDS011;2377;51.734;8.950;2022-10-13T15:23:41;8.80;;;4.63;;
4726;SDS011;2377;51.734;8.950;2022-10-13T15:26:11;8.10;;;4.90;;
4726;SDS011;2377;51.734;8.950;2022-10-13T15:28:41;11.20;;;4.30;;
4726;SDS011;2377;51.734;8.950;2022-10-13T15:31:11;11.13;;;5.03;;
4726;SDS011;2377;51.734;8.950;2022-10-13T15:33:40;9.77;;;4.50;;
4726;SDS011;2377;51.734;8.950;2022-10-13T15:36:08;10.53;;;5.10;;
4726;SDS011;2377;51.734;8.950;2022-10-13T15:38:35;7.53;;;4.97;;
4726;SDS011;2377;51.734;8.950;2022-10-13T15:41:02;8.67;;;5.17;;
4726;SDS011;2377;51.734;8.950;2022-10-13T15:43:32;13.53;;;4.83;;
4726;SDS011;2377;51.734;8.950;2022-10-13T15:46:00;8.40;;;4.97;;
4726;SDS011;2377;51.734;8.950;2022-10-13T15:48:29;9.47;;;4.80;;
4726;SDS011;2377;51.734;8.950;2022-10-13T15:50:57;8.70;;;4.47;;
4726;SDS011;2377;51.734;8.950;2022-10-13T15:53:25;10.63;;;4.80;;
4726;SDS011;2377;51.734;8.950;2022-10-13T15:55:52;9.57;;;4.73;;
4726;SDS011;2377;51.734;8.950;2022-10-13T15:58:19;9.73;;;4.60;;
4726;SDS011;2377;51.734;8.950;2022-10-13T16:00:47;14.83;;;5.27;;